sensor_id;sensor_type;location;lat;lon;timestamp;temperature;humidity
38726;DHT22;24474;48.906;8.808;2024-03-22T00:00:15;9.60;99.90
38726;DHT22;24474;48.906;8.808;2024-03-22T00:02:43;9.50;99.90
38726;DHT22;24474;48.906;8.808;2024-03-22T00:05:09;9.50;99.90
38726;DHT22;24474;48.906;8.808;2024-03-22T00:07:35;9.50;99.90
38726;DHT22;24474;48.906;8.808;2024-03-22T00:10:05;9.40;99.90
38726;DHT22;24474;48.906;8.808;2024-03-22T00:12:31;9.40;99.90
38726;DHT22;24474;48.906;8.808;2024-03-22T00:14:56;9.30;99.90
38726;DHT22;24474;48.906;8.808;2024-03-22T00:17:22;9.30;99.90
38726;DHT22;24474;48.906;8.808;2024-03-22T00:19:48;9.30;99.90
38726;DHT22;24474;48.906;8.808;2024-03-22T00:22:13;9.20;99.90
38726;DHT22;24474;48.906;8.808;2024-03-22T00:24:40;9.20;99.90
38726;DHT22;24474;48.906;8.808;2024-03-22T00:27:05;9.20;99.90
38726;DHT22;24474;48.906;8.808;2024-03-22T00:29:31;9.10;99.90
38726;DHT22;24474;48.906;8.808;2024-03-22T00:31:56;9.10;99.90
38726;DHT22;24474;48.906;8.808;2024-03-22T00:34:22;9.00;99.90
38726;DHT22;24474;48.906;8.808;2024-03-22T00:36:47;9.00;99.90
38726;DHT22;24474;48.906;8.808;2024-03-22T00:39:13;8.90;99.90
38726;DHT22;24474;48.906;8.808;2024-03-22T00:41:39;8.90;99.90
38726;DHT22;24474;48.906;8.808;2024-03-22T00:44:04;8.90;99.90
38726;DHT22;24474;48.906;8.808;2024-03-22T00:46:30;8.90;99.90
38726;DHT22;24474;48.906;8.808;2024-03-22T00:48:56;8.80;99.90
38726;DHT22;24474;48.906;8.808;2024-03-22T00:51:24;8.80;99.90
38726;DHT22;24474;48.906;8.808;2024-03-22T00:53:50;8.70;99.90
38726;DHT22;24474;48.906;8.808;2024-03-22T00:56:16;8.60;99.90
38726;DHT22;24474;48.906;8.808;2024-03-22T00:58:41;8.70;99.90
38726;DHT22;24474;48.906;8.808;2024-03-22T01:01:07;8.70;99.90
38726;DHT22;24474;48.906;8.808;2024-03-22T01:03:32;8.70;99.90
38726;DHT22;24474;48.906;8.808;2024-03-22T01:05:58;8.60;99.90
38726;DHT22;24474;48.906;8.808;2024-03-22T01:08:23;8.60;99.90
38726;DHT22;24474;48.906;8.808;2024-03-22T01:10:49;8.60;99.90
38726;DHT22;24474;48.906;8.808;2024-03-22T01:13:15;8.60;99.90
38726;DHT22;24474;48.906;8.808;2024-03-22T01:15:40;8.50;99.90
38726;DHT22;24474;48.906;8.808;2024-03-22T01:18:07;8.60;99.90
38726;DHT22;24474;48.906;8.808;2024-03-22T01:20:32;8.40;99.90
38726;DHT22;24474;48.906;8.808;2024-03-22T01:22:59;8.40;99.90
38726;DHT22;24474;48.906;8.808;2024-03-22T01:25:25;8.40;99.90
38726;DHT22;24474;48.906;8.808;2024-03-22T01:27:51;8.40;99.90
38726;DHT22;24474;48.906;8.808;2024-03-22T01:30:16;8.30;99.90
38726;DHT22;24474;48.906;8.808;2024-03-22T01:32:43;8.30;99.90
38726;DHT22;24474;48.906;8.808;2024-03-22T01:35:08;8.30;99.90
38726;DHT22;24474;48.906;8.808;2024-03-22T01:37:34;8.20;99.90
38726;DHT22;24474;48.906;8.808;2024-03-22T01:40:00;8.20;99.90
38726;DHT22;24474;48.906;8.808;2024-03-22T01:42:25;8.20;99.90
38726;DHT22;24474;48.906;8.808;2024-03-22T01:44:51;8.20;99.90
38726;DHT22;24474;48.906;8.808;2024-03-22T01:47:17;8.20;99.90
38726;DHT22;24474;48.906;8.808;2024-03-22T01:49:43;8.10;99.90
38726;DHT22;24474;48.906;8.808;2024-03-22T01:52:09;8.10;99.90
38726;DHT22;24474;48.906;8.808;2024-03-22T01:54:35;8.10;99.90
38726;DHT22;24474;48.906;8.808;2024-03-22T01:57:00;8.10;99.90
38726;DHT22;24474;48.906;8.808;2024-03-22T01:59:28;8.10;99.90
38726;DHT22;24474;48.906;8.808;2024-03-22T02:01:54;8.10;99.90
38726;DHT22;24474;48.906;8.808;2024-03-22T02:04:20;8.10;99.90
38726;DHT22;24474;48.906;8.808;2024-03-22T02:06:45;8.10;99.90
38726;DHT22;24474;48.906;8.808;2024-03-22T02:09:11;8.00;99.90
38726;DHT22;24474;48.906;8.808;2024-03-22T02:11:36;8.00;99.90
38726;DHT22;24474;48.906;8.808;2024-03-22T02:14:03;8.00;99.90
38726;DHT22;24474;48.906;8.808;2024-03-22T02:16:30;8.00;99.90
38726;DHT22;24474;48.906;8.808;2024-03-22T02:18:56;8.00;99.90
38726;DHT22;24474;48.906;8.808;2024-03-22T02:21:21;7.90;99.90
38726;DHT22;24474;48.906;8.808;2024-03-22T02:23:47;7.90;99.90
38726;DHT22;24474;48.906;8.808;2024-03-22T02:26:12;8.00;99.90
38726;DHT22;24474;48.906;8.808;2024-03-22T02:28:38;7.90;99.90
38726;DHT22;24474;48.906;8.808;2024-03-22T02:31:04;7.90;99.90
38726;DHT22;24474;48.906;8.808;2024-03-22T02:33:30;7.90;99.90
38726;DHT22;24474;48.906;8.808;2024-03-22T02:35:56;7.90;99.90
38726;DHT22;24474;48.906;8.808;2024-03-22T02:38:22;7.90;99.90
38726;DHT22;24474;48.906;8.808;2024-03-22T02:40:49;7.90;99.90
38726;DHT22;24474;48.906;8.808;2024-03-22T02:43:15;7.90;99.90
38726;DHT22;24474;48.906;8.808;2024-03-22T02:45:43;7.90;99.90
38726;DHT22;24474;48.906;8.808;2024-03-22T02:48:08;7.90;99.90
38726;DHT22;24474;48.906;8.808;2024-03-22T02:50:34;7.90;99.90
38726;DHT22;24474;48.906;8.808;2024-03-22T02:53:00;7.90;99.90
38726;DHT22;24474;48.906;8.808;2024-03-22T02:55:26;7.90;99.90
38726;DHT22;24474;48.906;8.808;2024-03-22T02:57:52;7.90;99.90
38726;DHT22;24474;48.906;8.808;2024-03-22T03:00:17;7.90;99.90
38726;DHT22;24474;48.906;8.808;2024-03-22T03:02:44;7.90;99.90
38726;DHT22;24474;48.906;8.808;2024-03-22T03:05:09;7.90;99.90
38726;DHT22;24474;48.906;8.808;2024-03-22T03:07:35;7.90;99.90
38726;DHT22;24474;48.906;8.808;2024-03-22T03:10:01;7.90;99.90
38726;DHT22;24474;48.906;8.808;2024-03-22T03:12:27;7.90;99.90
38726;DHT22;24474;48.906;8.808;2024-03-22T03:14:52;7.90;99.90
38726;DHT22;24474;48.906;8.808;2024-03-22T03:17:18;7.90;99.90
38726;DHT22;24474;48.906;8.808;2024-03-22T03:19:44;7.90;99.90
38726;DHT22;24474;48.906;8.808;2024-03-22T03:22:09;7.90;99.90
38726;DHT22;24474;48.906;8.808;2024-03-22T03:24:35;7.90;99.90
38726;DHT22;24474;48.906;8.808;2024-03-22T03:27:01;7.90;99.90
38726;DHT22;24474;48.906;8.808;2024-03-22T03:29:28;7.90;99.90
38726;DHT22;24474;48.906;8.808;2024-03-22T03:31:53;7.90;99.90
38726;DHT22;24474;48.906;8.808;2024-03-22T03:34:19;7.90;99.90
38726;DHT22;24474;48.906;8.808;2024-03-22T03:36:46;7.90;99.90
38726;DHT22;24474;48.906;8.808;2024-03-22T03:39:11;7.90;99.90
38726;DHT22;24474;48.906;8.808;2024-03-22T03:41:37;7.90;99.90
38726;DHT22;24474;48.906;8.808;2024-03-22T03:44:03;8.00;99.90
38726;DHT22;24474;48.906;8.808;2024-03-22T03:46:28;8.00;99.90
38726;DHT22;24474;48.906;8.808;2024-03-22T03:48:54;8.00;99.90
38726;DHT22;24474;48.906;8.808;2024-03-22T03:51:19;7.90;99.90
38726;DHT22;24474;48.906;8.808;2024-03-22T03:53:45;7.90;99.90
38726;DHT22;24474;48.906;8.808;2024-03-22T03:56:11;7.90;99.90
38726;DHT22;24474;48.906;8.808;2024-03-22T03:58:36;8.00;99.90
38726;DHT22;24474;48.906;8.808;2024-03-22T04:01:06;8.00;99.90
38726;DHT22;24474;48.906;8.808;2024-03-22T04:03:32;7.90;99.90
38726;DHT22;24474;48.906;8.808;2024-03-22T04:05:58;8.00;99.90
38726;DHT22;24474;48.906;8.808;2024-03-22T04:08:27;8.00;99.90
38726;DHT22;24474;48.906;8.808;2024-03-22T04:10:59;8.00;99.90
38726;DHT22;24474;48.906;8.808;2024-03-22T04:13:25;8.00;99.90
38726;DHT22;24474;48.906;8.808;2024-03-22T04:15:52;8.00;99.90
38726;DHT22;24474;48.906;8.808;2024-03-22T04:18:19;8.00;99.90
38726;DHT22;24474;48.906;8.808;2024-03-22T04:20:57;8.00;99.90
38726;DHT22;24474;48.906;8.808;2024-03-22T04:23:24;8.00;99.90
38726;DHT22;24474;48.906;8.808;2024-03-22T04:25:57;8.00;99.90
38726;DHT22;24474;48.906;8.808;2024-03-22T04:28:27;8.00;99.90
38726;DHT22;24474;48.906;8.808;2024-03-22T04:33:22;8.00;99.90
38726;DHT22;24474;48.906;8.808;2024-03-22T04:35:48;8.00;99.90
38726;DHT22;24474;48.906;8.808;2024-03-22T04:38:13;8.10;99.90
38726;DHT22;24474;48.906;8.808;2024-03-22T04:40:40;8.10;99.90
38726;DHT22;24474;48.906;8.808;2024-03-22T04:43:06;8.10;99.90
38726;DHT22;24474;48.906;8.808;2024-03-22T04:45:32;8.10;99.90
38726;DHT22;24474;48.906;8.808;2024-03-22T04:47:57;8.10;99.90
38726;DHT22;24474;48.906;8.808;2024-03-22T04:50:23;8.10;99.90
38726;DHT22;24474;48.906;8.808;2024-03-22T04:52:48;8.10;99.90
38726;DHT22;24474;48.906;8.808;2024-03-22T04:55:14;8.10;99.90
38726;DHT22;24474;48.906;8.808;2024-03-22T04:57:39;8.10;99.90
38726;DHT22;24474;48.906;8.808;2024-03-22T05:00:05;8.00;99.90
38726;DHT22;24474;48.906;8.808;2024-03-22T05:02:34;8.00;99.90
38726;DHT22;24474;48.906;8.808;2024-03-22T05:04:59;8.00;99.90
38726;DHT22;24474;48.906;8.808;2024-03-22T05:07:25;8.00;99.90
38726;DHT22;24474;48.906;8.808;2024-03-22T05:09:50;8.00;99.90
38726;DHT22;24474;48.906;8.808;2024-03-22T05:12:16;8.00;99.90
38726;DHT22;24474;48.906;8.808;2024-03-22T05:14:41;8.00;99.90
38726;DHT22;24474;48.906;8.808;2024-03-22T05:17:08;7.90;99.90
38726;DHT22;24474;48.906;8.808;2024-03-22T05:19:33;7.90;99.90
38726;DHT22;24474;48.906;8.808;2024-03-22T05:21:59;8.00;99.90
38726;DHT22;24474;48.906;8.808;2024-03-22T05:24:25;7.90;99.90
38726;DHT22;24474;48.906;8.808;2024-03-22T05:26:51;7.90;99.90
38726;DHT22;24474;48.906;8.808;2024-03-22T05:29:17;7.90;99.90
38726;DHT22;24474;48.906;8.808;2024-03-22T05:31:47;7.90;99.90
38726;DHT22;24474;48.906;8.808;2024-03-22T05:34:14;7.90;99.90
38726;DHT22;24474;48.906;8.808;2024-03-22T05:36:40;7.80;99.90
38726;DHT22;24474;48.906;8.808;2024-03-22T05:39:06;7.80;99.90
38726;DHT22;24474;48.906;8.808;2024-03-22T05:41:31;7.80;99.90
38726;DHT22;24474;48.906;8.808;2024-03-22T05:43:57;7.80;99.90
38726;DHT22;24474;48.906;8.808;2024-03-22T05:46:23;7.80;99.90
38726;DHT22;24474;48.906;8.808;2024-03-22T05:48:49;7.80;99.90
38726;DHT22;24474;48.906;8.808;2024-03-22T05:51:16;7.80;99.90
38726;DHT22;24474;48.906;8.808;2024-03-22T05:53:42;7.80;99.90
38726;DHT22;24474;48.906;8.808;2024-03-22T05:56:08;7.80;99.90
38726;DHT22;24474;48.906;8.808;2024-03-22T05:58:34;7.80;99.90
38726;DHT22;24474;48.906;8.808;2024-03-22T06:01:04;7.80;99.90
38726;DHT22;24474;48.906;8.808;2024-03-22T06:03:30;7.80;99.90
38726;DHT22;24474;48.906;8.808;2024-03-22T06:05:55;7.80;99.90
38726;DHT22;24474;48.906;8.808;2024-03-22T06:08:25;7.80;99.90
38726;DHT22;24474;48.906;8.808;2024-03-22T06:10:52;7.80;99.90
38726;DHT22;24474;48.906;8.808;2024-03-22T06:13:18;7.80;99.90
38726;DHT22;24474;48.906;8.808;2024-03-22T06:15:43;7.80;99.90
38726;DHT22;24474;48.906;8.808;2024-03-22T06:18:13;7.80;99.90
38726;DHT22;24474;48.906;8.808;2024-03-22T06:20:40;7.80;99.90
38726;DHT22;24474;48.906;8.808;2024-03-22T06:23:07;7.80;99.90
38726;DHT22;24474;48.906;8.808;2024-03-22T06:25:33;7.90;99.90
38726;DHT22;24474;48.906;8.808;2024-03-22T06:27:59;7.90;99.90
38726;DHT22;24474;48.906;8.808;2024-03-22T06:30:25;7.90;99.90
38726;DHT22;24474;48.906;8.808;2024-03-22T06:32:51;7.90;99.90
38726;DHT22;24474;48.906;8.808;2024-03-22T06:35:16;7.90;99.90
38726;DHT22;24474;48.906;8.808;2024-03-22T06:37:42;7.90;99.90
38726;DHT22;24474;48.906;8.808;2024-03-22T06:40:09;8.00;99.90
38726;DHT22;24474;48.906;8.808;2024-03-22T06:42:35;8.00;99.90
38726;DHT22;24474;48.906;8.808;2024-03-22T06:45:01;8.00;99.90
38726;DHT22;24474;48.906;8.808;2024-03-22T06:47:27;8.00;99.90
38726;DHT22;24474;48.906;8.808;2024-03-22T06:49:53;8.10;99.90
38726;DHT22;24474;48.906;8.808;2024-03-22T06:52:18;8.10;99.90
38726;DHT22;24474;48.906;8.808;2024-03-22T06:54:45;8.10;99.90
38726;DHT22;24474;48.906;8.808;2024-03-22T06:57:11;8.20;99.90
38726;DHT22;24474;48.906;8.808;2024-03-22T06:59:36;8.10;99.90
38726;DHT22;24474;48.906;8.808;2024-03-22T07:02:02;8.20;99.90
38726;DHT22;24474;48.906;8.808;2024-03-22T07:04:28;8.20;99.90
38726;DHT22;24474;48.906;8.808;2024-03-22T07:06:55;8.20;99.90
38726;DHT22;24474;48.906;8.808;2024-03-22T07:09:23;8.20;99.90
38726;DHT22;24474;48.906;8.808;2024-03-22T07:11:49;8.30;99.90
38726;DHT22;24474;48.906;8.808;2024-03-22T07:14:16;8.30;99.90
38726;DHT22;24474;48.906;8.808;2024-03-22T07:16:42;8.30;99.90
38726;DHT22;24474;48.906;8.808;2024-03-22T07:19:20;8.40;99.90
38726;DHT22;24474;48.906;8.808;2024-03-22T07:21:52;8.40;99.90
38726;DHT22;24474;48.906;8.808;2024-03-22T07:24:18;8.50;99.90
38726;DHT22;24474;48.906;8.808;2024-03-22T07:26:43;8.50;99.90
38726;DHT22;24474;48.906;8.808;2024-03-22T07:29:09;8.50;99.90
38726;DHT22;24474;48.906;8.808;2024-03-22T07:31:35;8.60;99.90
38726;DHT22;24474;48.906;8.808;2024-03-22T07:34:00;8.70;99.90
38726;DHT22;24474;48.906;8.808;2024-03-22T07:36:26;8.70;99.90
38726;DHT22;24474;48.906;8.808;2024-03-22T07:38:52;8.80;99.90
38726;DHT22;24474;48.906;8.808;2024-03-22T07:41:19;8.90;99.90
38726;DHT22;24474;48.906;8.808;2024-03-22T07:43:45;9.00;99.90
38726;DHT22;24474;48.906;8.808;2024-03-22T07:46:10;9.10;99.90
38726;DHT22;24474;48.906;8.808;2024-03-22T07:48:37;9.20;99.90
38726;DHT22;24474;48.906;8.808;2024-03-22T07:51:05;9.20;99.90
38726;DHT22;24474;48.906;8.808;2024-03-22T07:53:31;9.30;99.90
38726;DHT22;24474;48.906;8.808;2024-03-22T07:55:57;9.40;99.90
38726;DHT22;24474;48.906;8.808;2024-03-22T07:58:25;9.40;99.90
38726;DHT22;24474;48.906;8.808;2024-03-22T08:00:51;9.50;99.90
38726;DHT22;24474;48.906;8.808;2024-03-22T08:03:17;9.60;99.90
38726;DHT22;24474;48.906;8.808;2024-03-22T08:05:42;9.70;99.90
38726;DHT22;24474;48.906;8.808;2024-03-22T08:08:08;9.80;99.90
38726;DHT22;24474;48.906;8.808;2024-03-22T08:10:35;10.00;99.90
38726;DHT22;24474;48.906;8.808;2024-03-22T08:13:02;10.00;99.90
38726;DHT22;24474;48.906;8.808;2024-03-22T08:15:29;10.10;99.90
38726;DHT22;24474;48.906;8.808;2024-03-22T08:17:55;10.30;99.90
38726;DHT22;24474;48.906;8.808;2024-03-22T08:20:23;10.30;99.90
38726;DHT22;24474;48.906;8.808;2024-03-22T08:22:49;10.50;99.90
38726;DHT22;24474;48.906;8.808;2024-03-22T08:25:15;10.50;99.90
38726;DHT22;24474;48.906;8.808;2024-03-22T08:27:43;10.70;99.90
38726;DHT22;24474;48.906;8.808;2024-03-22T08:30:10;10.90;99.90
38726;DHT22;24474;48.906;8.808;2024-03-22T08:32:37;10.90;99.90
38726;DHT22;24474;48.906;8.808;2024-03-22T08:35:05;11.00;99.90
38726;DHT22;24474;48.906;8.808;2024-03-22T08:37:32;11.10;99.90
38726;DHT22;24474;48.906;8.808;2024-03-22T08:39:58;11.20;99.90
38726;DHT22;24474;48.906;8.808;2024-03-22T08:42:24;11.30;99.90
38726;DHT22;24474;48.906;8.808;2024-03-22T08:44:49;11.40;99.90
38726;DHT22;24474;48.906;8.808;2024-03-22T08:47:16;11.40;99.90
38726;DHT22;24474;48.906;8.808;2024-03-22T08:49:44;11.50;99.90
38726;DHT22;24474;48.906;8.808;2024-03-22T08:52:12;11.60;99.90
38726;DHT22;24474;48.906;8.808;2024-03-22T08:54:40;11.60;99.90
38726;DHT22;24474;48.906;8.808;2024-03-22T08:57:07;11.70;99.90
38726;DHT22;24474;48.906;8.808;2024-03-22T08:59:34;11.80;99.90
38726;DHT22;24474;48.906;8.808;2024-03-22T09:02:00;11.90;99.90
38726;DHT22;24474;48.906;8.808;2024-03-22T09:04:26;12.10;99.90
38726;DHT22;24474;48.906;8.808;2024-03-22T09:06:51;12.20;99.90
38726;DHT22;24474;48.906;8.808;2024-03-22T09:09:17;12.30;99.90
38726;DHT22;24474;48.906;8.808;2024-03-22T09:11:43;12.40;99.90
38726;DHT22;24474;48.906;8.808;2024-03-22T09:14:09;12.50;99.90
38726;DHT22;24474;48.906;8.808;2024-03-22T09:16:34;12.60;99.90
38726;DHT22;24474;48.906;8.808;2024-03-22T09:19:00;12.80;99.90
38726;DHT22;24474;48.906;8.808;2024-03-22T09:21:26;12.90;99.90
38726;DHT22;24474;48.906;8.808;2024-03-22T09:23:52;13.00;99.90
38726;DHT22;24474;48.906;8.808;2024-03-22T09:26:17;13.10;99.90
38726;DHT22;24474;48.906;8.808;2024-03-22T09:28:46;13.10;99.90
38726;DHT22;24474;48.906;8.808;2024-03-22T09:31:11;13.30;99.90
38726;DHT22;24474;48.906;8.808;2024-03-22T09:33:37;13.40;99.90
38726;DHT22;24474;48.906;8.808;2024-03-22T09:36:03;13.50;99.90
38726;DHT22;24474;48.906;8.808;2024-03-22T09:38:29;13.50;99.90
38726;DHT22;24474;48.906;8.808;2024-03-22T09:40:55;13.60;99.90
38726;DHT22;24474;48.906;8.808;2024-03-22T09:43:23;13.70;99.90
38726;DHT22;24474;48.906;8.808;2024-03-22T09:45:52;13.70;99.90
38726;DHT22;24474;48.906;8.808;2024-03-22T09:48:19;13.80;99.90
38726;DHT22;24474;48.906;8.808;2024-03-22T09:50:47;13.80;99.90
38726;DHT22;24474;48.906;8.808;2024-03-22T09:53:16;13.90;99.90
38726;DHT22;24474;48.906;8.808;2024-03-22T09:55:45;14.00;99.90
38726;DHT22;24474;48.906;8.808;2024-03-22T09:58:10;14.20;99.90
38726;DHT22;24474;48.906;8.808;2024-03-22T10:00:36;14.30;99.90
38726;DHT22;24474;48.906;8.808;2024-03-22T10:03:04;14.40;99.90
38726;DHT22;24474;48.906;8.808;2024-03-22T10:05:33;14.40;99.90
38726;DHT22;24474;48.906;8.808;2024-03-22T10:07:59;14.50;99.90
38726;DHT22;24474;48.906;8.808;2024-03-22T10:10:25;14.60;99.90
38726;DHT22;24474;48.906;8.808;2024-03-22T10:12:51;14.80;99.90
38726;DHT22;24474;48.906;8.808;2024-03-22T10:15:23;14.80;99.90
38726;DHT22;24474;48.906;8.808;2024-03-22T10:17:56;14.90;99.90
38726;DHT22;24474;48.906;8.808;2024-03-22T10:20:22;14.90;99.90
38726;DHT22;24474;48.906;8.808;2024-03-22T10:22:58;15.00;99.90
38726;DHT22;24474;48.906;8.808;2024-03-22T10:25:25;15.10;99.90
38726;DHT22;24474;48.906;8.808;2024-03-22T10:27:53;15.20;99.90
38726;DHT22;24474;48.906;8.808;2024-03-22T10:30:19;15.30;99.90
38726;DHT22;24474;48.906;8.808;2024-03-22T10:32:44;15.40;99.90
38726;DHT22;24474;48.906;8.808;2024-03-22T10:35:14;15.40;99.90
38726;DHT22;24474;48.906;8.808;2024-03-22T10:37:40;15.50;99.90
38726;DHT22;24474;48.906;8.808;2024-03-22T10:40:06;15.60;99.90
38726;DHT22;24474;48.906;8.808;2024-03-22T10:42:36;15.60;99.90
38726;DHT22;24474;48.906;8.808;2024-03-22T10:45:03;15.70;99.90
38726;DHT22;24474;48.906;8.808;2024-03-22T10:47:31;15.70;99.90
38726;DHT22;24474;48.906;8.808;2024-03-22T10:50:17;15.80;99.90
38726;DHT22;24474;48.906;8.808;2024-03-22T10:52:51;15.80;99.90
38726;DHT22;24474;48.906;8.808;2024-03-22T10:55:26;15.90;99.90
38726;DHT22;24474;48.906;8.808;2024-03-22T10:57:57;16.00;99.90
38726;DHT22;24474;48.906;8.808;2024-03-22T11:00:33;16.00;99.90
38726;DHT22;24474;48.906;8.808;2024-03-22T11:03:02;16.10;99.90
38726;DHT22;24474;48.906;8.808;2024-03-22T11:05:29;16.20;99.90
38726;DHT22;24474;48.906;8.808;2024-03-22T11:08:00;16.20;99.90
38726;DHT22;24474;48.906;8.808;2024-03-22T11:10:29;16.20;99.90
38726;DHT22;24474;48.906;8.808;2024-03-22T11:13:02;16.30;99.90
38726;DHT22;24474;48.906;8.808;2024-03-22T11:15:29;16.30;99.90
38726;DHT22;24474;48.906;8.808;2024-03-22T11:17:55;16.30;99.90
38726;DHT22;24474;48.906;8.808;2024-03-22T11:20:21;16.40;99.90
38726;DHT22;24474;48.906;8.808;2024-03-22T11:22:47;16.40;99.90
38726;DHT22;24474;48.906;8.808;2024-03-22T11:25:12;16.40;99.90
38726;DHT22;24474;48.906;8.808;2024-03-22T11:27:38;16.50;99.90
38726;DHT22;24474;48.906;8.808;2024-03-22T11:30:04;16.40;99.60
38726;DHT22;24474;48.906;8.808;2024-03-22T11:32:30;16.50;98.70
38726;DHT22;24474;48.906;8.808;2024-03-22T11:34:56;16.50;99.80
38726;DHT22;24474;48.906;8.808;2024-03-22T11:37:24;16.50;99.90
38726;DHT22;24474;48.906;8.808;2024-03-22T11:39:50;16.50;99.90
38726;DHT22;24474;48.906;8.808;2024-03-22T11:42:19;16.60;99.90
38726;DHT22;24474;48.906;8.808;2024-03-22T11:44:44;16.60;99.90
38726;DHT22;24474;48.906;8.808;2024-03-22T11:47:10;16.60;99.90
38726;DHT22;24474;48.906;8.808;2024-03-22T11:49:36;16.70;99.90
38726;DHT22;24474;48.906;8.808;2024-03-22T11:52:02;16.70;99.90
38726;DHT22;24474;48.906;8.808;2024-03-22T11:54:28;16.70;99.90
38726;DHT22;24474;48.906;8.808;2024-03-22T11:56:56;16.80;99.90
38726;DHT22;24474;48.906;8.808;2024-03-22T11:59:24;16.80;99.90
38726;DHT22;24474;48.906;8.808;2024-03-22T12:01:50;16.70;99.90
38726;DHT22;24474;48.906;8.808;2024-03-22T12:04:19;16.80;99.90
38726;DHT22;24474;48.906;8.808;2024-03-22T12:06:46;16.90;99.90
38726;DHT22;24474;48.906;8.808;2024-03-22T12:09:16;16.90;99.90
38726;DHT22;24474;48.906;8.808;2024-03-22T12:11:43;17.00;99.90
38726;DHT22;24474;48.906;8.808;2024-03-22T12:14:08;17.00;99.90
38726;DHT22;24474;48.906;8.808;2024-03-22T12:16:34;17.10;99.90
38726;DHT22;24474;48.906;8.808;2024-03-22T12:19:01;17.10;99.90
38726;DHT22;24474;48.906;8.808;2024-03-22T12:21:26;17.20;99.90
38726;DHT22;24474;48.906;8.808;2024-03-22T12:23:52;17.20;99.90
38726;DHT22;24474;48.906;8.808;2024-03-22T12:26:19;17.20;99.40
38726;DHT22;24474;48.906;8.808;2024-03-22T12:28:45;17.20;99.20
38726;DHT22;24474;48.906;8.808;2024-03-22T12:31:12;17.30;99.10
38726;DHT22;24474;48.906;8.808;2024-03-22T12:33:37;17.30;98.30
38726;DHT22;24474;48.906;8.808;2024-03-22T12:36:04;17.30;98.60
38726;DHT22;24474;48.906;8.808;2024-03-22T12:38:29;17.30;97.50
38726;DHT22;24474;48.906;8.808;2024-03-22T12:40:57;17.30;97.20
38726;DHT22;24474;48.906;8.808;2024-03-22T12:43:22;17.30;96.90
38726;DHT22;24474;48.906;8.808;2024-03-22T12:45:48;17.30;97.20
38726;DHT22;24474;48.906;8.808;2024-03-22T12:48:13;17.40;96.60
38726;DHT22;24474;48.906;8.808;2024-03-22T12:50:39;17.40;96.70
38726;DHT22;24474;48.906;8.808;2024-03-22T12:53:05;17.40;96.00
38726;DHT22;24474;48.906;8.808;2024-03-22T12:55:30;17.40;95.90
38726;DHT22;24474;48.906;8.808;2024-03-22T12:57:57;17.50;95.90
38726;DHT22;24474;48.906;8.808;2024-03-22T13:00:23;17.50;95.80
38726;DHT22;24474;48.906;8.808;2024-03-22T13:02:48;17.50;95.90
38726;DHT22;24474;48.906;8.808;2024-03-22T13:05:14;17.50;96.60
38726;DHT22;24474;48.906;8.808;2024-03-22T13:07:40;17.50;95.90
38726;DHT22;24474;48.906;8.808;2024-03-22T13:10:07;17.60;95.60
38726;DHT22;24474;48.906;8.808;2024-03-22T13:12:33;17.60;95.80
38726;DHT22;24474;48.906;8.808;2024-03-22T13:15:03;17.60;94.90
38726;DHT22;24474;48.906;8.808;2024-03-22T13:17:29;17.60;94.90
38726;DHT22;24474;48.906;8.808;2024-03-22T13:19:54;17.60;94.40
38726;DHT22;24474;48.906;8.808;2024-03-22T13:22:20;17.60;94.20
38726;DHT22;24474;48.906;8.808;2024-03-22T13:24:46;17.70;94.00
38726;DHT22;24474;48.906;8.808;2024-03-22T13:27:12;17.60;93.60
38726;DHT22;24474;48.906;8.808;2024-03-22T13:29:38;17.60;94.30
38726;DHT22;24474;48.906;8.808;2024-03-22T13:32:05;17.60;94.20
38726;DHT22;24474;48.906;8.808;2024-03-22T13:34:36;17.60;94.50
38726;DHT22;24474;48.906;8.808;2024-03-22T13:37:02;17.60;94.40
38726;DHT22;24474;48.906;8.808;2024-03-22T13:39:28;17.50;93.80
38726;DHT22;24474;48.906;8.808;2024-03-22T13:41:57;17.50;93.40
38726;DHT22;24474;48.906;8.808;2024-03-22T13:44:24;17.50;93.70
38726;DHT22;24474;48.906;8.808;2024-03-22T13:46:51;17.50;93.60
38726;DHT22;24474;48.906;8.808;2024-03-22T13:49:18;17.50;93.80
38726;DHT22;24474;48.906;8.808;2024-03-22T13:51:46;17.50;93.10
38726;DHT22;24474;48.906;8.808;2024-03-22T13:54:12;17.40;92.90
38726;DHT22;24474;48.906;8.808;2024-03-22T13:56:38;17.60;93.40
38726;DHT22;24474;48.906;8.808;2024-03-22T13:59:04;17.40;93.40
38726;DHT22;24474;48.906;8.808;2024-03-22T14:01:37;17.40;93.60
38726;DHT22;24474;48.906;8.808;2024-03-22T14:04:03;17.40;93.50
38726;DHT22;24474;48.906;8.808;2024-03-22T14:06:30;17.40;93.50
38726;DHT22;24474;48.906;8.808;2024-03-22T14:08:57;17.30;93.90
38726;DHT22;24474;48.906;8.808;2024-03-22T14:11:29;17.30;94.20
38726;DHT22;24474;48.906;8.808;2024-03-22T14:13:59;17.30;93.80
38726;DHT22;24474;48.906;8.808;2024-03-22T14:16:25;17.40;94.10
38726;DHT22;24474;48.906;8.808;2024-03-22T14:18:51;17.30;94.50
38726;DHT22;24474;48.906;8.808;2024-03-22T14:21:19;17.30;94.20
38726;DHT22;24474;48.906;8.808;2024-03-22T14:23:58;17.30;94.40
38726;DHT22;24474;48.906;8.808;2024-03-22T14:26:23;17.30;94.40
38726;DHT22;24474;48.906;8.808;2024-03-22T14:28:51;17.30;94.90
38726;DHT22;24474;48.906;8.808;2024-03-22T14:31:20;17.40;95.20
38726;DHT22;24474;48.906;8.808;2024-03-22T14:33:45;17.40;95.60
38726;DHT22;24474;48.906;8.808;2024-03-22T14:36:11;17.30;95.50
38726;DHT22;24474;48.906;8.808;2024-03-22T14:38:38;17.30;95.00
38726;DHT22;24474;48.906;8.808;2024-03-22T14:41:04;17.30;95.30
38726;DHT22;24474;48.906;8.808;2024-03-22T14:43:30;17.20;95.50
38726;DHT22;24474;48.906;8.808;2024-03-22T14:46:00;17.20;95.80
38726;DHT22;24474;48.906;8.808;2024-03-22T14:48:26;17.20;96.80
38726;DHT22;24474;48.906;8.808;2024-03-22T14:50:51;17.10;97.20
38726;DHT22;24474;48.906;8.808;2024-03-22T14:53:22;17.10;97.70
38726;DHT22;24474;48.906;8.808;2024-03-22T14:55:58;17.10;98.00
38726;DHT22;24474;48.906;8.808;2024-03-22T14:58:25;17.10;98.30
38726;DHT22;24474;48.906;8.808;2024-03-22T15:00:53;17.10;97.90
38726;DHT22;24474;48.906;8.808;2024-03-22T15:03:18;17.10;98.20
38726;DHT22;24474;48.906;8.808;2024-03-22T15:05:44;17.00;98.30
38726;DHT22;24474;48.906;8.808;2024-03-22T15:08:10;17.00;98.40
38726;DHT22;24474;48.906;8.808;2024-03-22T15:10:37;17.00;98.50
38726;DHT22;24474;48.906;8.808;2024-03-22T15:13:02;17.00;98.50
38726;DHT22;24474;48.906;8.808;2024-03-22T15:15:28;17.00;98.60
38726;DHT22;24474;48.906;8.808;2024-03-22T15:17:54;17.00;98.50
38726;DHT22;24474;48.906;8.808;2024-03-22T15:20:20;17.00;98.40
38726;DHT22;24474;48.906;8.808;2024-03-22T15:22:45;17.00;98.90
38726;DHT22;24474;48.906;8.808;2024-03-22T15:25:11;16.90;98.50
38726;DHT22;24474;48.906;8.808;2024-03-22T15:27:37;16.90;98.50
38726;DHT22;24474;48.906;8.808;2024-03-22T15:30:03;16.90;98.30
38726;DHT22;24474;48.906;8.808;2024-03-22T15:32:31;16.80;98.40
38726;DHT22;24474;48.906;8.808;2024-03-22T15:34:57;16.80;98.40
38726;DHT22;24474;48.906;8.808;2024-03-22T15:37:22;16.80;98.60